createdAt,value
2017-11-23T05:46:01.842Z,60.10
2017-11-23T05:48:31.009Z,59.80
2017-11-23T05:51:20.860Z,59.60
2017-11-23T05:56:39.142Z,59.50
2017-11-23T05:59:25.629Z,59.30
2017-11-23T06:02:07.256Z,59.20
2017-11-23T06:49:49.412Z,59.90
2017-11-23T06:52:18.337Z,59.80
2017-11-23T06:55:00.459Z,59.90
2017-11-23T07:00:37.751Z,59.80
2017-11-23T07:03:26.031Z,60.00
2017-11-23T07:06:19.082Z,59.60
2017-11-23T07:12:03.534Z,59.90
2017-11-23T07:14:31.266Z,59.70
2017-11-23T07:17:11.508Z,59.80
2017-11-23T07:19:39.172Z,59.80
2017-11-23T07:22:06.781Z,60.00
2017-11-23T07:24:48.206Z,59.90
2017-11-23T07:27:15.849Z,59.90
2017-11-23T07:29:44.223Z,60.40
2017-11-23T07:32:25.634Z,60.40
2017-11-23T07:34:53.251Z,60.50
2017-11-23T07:37:20.875Z,60.70
2017-11-23T07:40:04.883Z,60.70
2017-11-23T07:42:32.915Z,60.80
2017-11-23T07:45:00.513Z,60.80
2017-11-23T07:47:52.103Z,60.90
2017-11-23T07:50:34.116Z,60.80
2017-11-23T07:53:01.749Z,61.10
2017-11-23T07:55:54.053Z,60.60
2017-11-23T07:58:38.144Z,60.30
2017-11-23T08:01:48.879Z,61.00
2017-11-23T08:04:41.968Z,60.40
2017-11-23T08:07:27.289Z,60.20
2017-11-23T08:10:00.048Z,60.20
2017-11-23T08:12:47.240Z,60.60
2017-11-23T08:15:28.417Z,60.10
2017-11-23T08:18:13.048Z,60.10
2017-11-23T08:20:42.153Z,60.00
2017-11-23T08:23:24.773Z,59.70
2017-11-23T08:26:07.691Z,59.60
2017-11-23T08:28:50.454Z,59.50
2017-11-23T08:31:33.618Z,59.50
2017-11-23T08:34:18.969Z,59.70
2017-11-23T08:37:01.588Z,59.70
2017-11-23T08:40:09.098Z,59.80
2017-11-23T08:42:55.094Z,59.70
2017-11-23T08:45:35.267Z,59.80
2017-11-23T08:48:21.878Z,59.80
2017-11-23T08:50:53.056Z,59.80
2017-11-23T08:53:42.173Z,61.00
2017-11-23T08:56:21.154Z,60.30
2017-11-23T08:59:00.744Z,60.10
2017-11-23T09:01:43.680Z,60.10
2017-11-23T09:04:34.441Z,60.00
2017-11-23T09:07:29.556Z,60.10
2017-11-23T09:10:16.510Z,60.00
2017-11-23T09:13:01.208Z,60.20
2017-11-23T09:15:49.634Z,60.20
2017-11-23T09:18:34.422Z,60.00
2017-11-23T09:21:19.963Z,60.60
2017-11-23T09:27:01.254Z,60.40
2017-11-23T09:29:45.789Z,61.40
2017-11-23T09:32:33.922Z,61.40
2017-11-23T09:35:20.160Z,61.90
2017-11-23T09:42:48.137Z,61.90
2017-11-23T09:57:22.507Z,61.60
2017-11-23T10:00:09.788Z,61.70
2017-11-23T10:02:37.668Z,61.80
2017-11-23T10:08:11.538Z,62.30
2017-11-23T10:16:45.592Z,63.10
2017-11-23T10:42:36.602Z,69.40
2017-11-23T10:45:18.586Z,70.60
2017-11-23T10:47:53.408Z,70.60
2017-11-23T10:50:43.989Z,71.00
2017-11-23T10:57:50.767Z,71.20
2017-11-23T11:01:58.564Z,71.40
2017-11-23T11:07:48.647Z,71.70
2017-11-23T11:23:11.821Z,72.70
2017-11-23T11:25:58.213Z,73.20
2017-11-23T11:28:41.864Z,73.20
2017-11-23T11:31:23.255Z,73.90
2017-11-23T11:34:05.355Z,74.40
2017-11-23T11:36:49.759Z,74.70
2017-11-23T11:55:32.442Z,76.80
2017-11-23T11:58:08.909Z,77.40
2017-11-23T12:03:27.257Z,77.60
2017-11-23T12:10:39.077Z,80.10
2017-11-23T17:57:39.416Z,83.80
2017-11-23T18:00:22.312Z,84.00
2017-11-23T18:02:50.587Z,84.00
2017-11-23T18:05:39.409Z,84.30
2017-11-23T23:28:52.274Z,81.80
2017-11-23T23:42:39.533Z,82.00
